DW8291 Weather Reports


Display with metric or nautical units.
time (UTC)temp
F
wind
direction
speed
MPH
gust
MPH
rain 1hr
in
rain 24hr
in
rain mn
in
humidity
%
barometer
mb
20260503233603 47 11 0.0 0.0 0.00 0.03 0.03 85 1008.5
20260503233103 47 5 0.0 0.0 0.00 0.03 0.03 86 1008.6
20260503232603 46 2 0.0 0.0 0.00 0.03 0.03 86 1008.6
20260503232103 46 1 0.0 0.0 0.00 0.03 0.03 86 1008.7
20260503231104 46 10 0.0 0.0 0.02 0.03 0.03 87 1008.8
20260503230604 46 11 0.0 0.0 0.02 0.03 0.03 87 1008.7
20260503230104 46 9 0.0 0.0 0.02 0.03 0.03 87 1008.8
20260503225604 46 8 0.0 0.0 0.02 0.03 0.03 87 1008.8
20260503225103 46 2 0.0 0.0 0.02 0.03 0.03 87 1008.8
20260503224604 46 1 0.0 0.0 0.02 0.03 0.03 87 1008.8
20260503224104 46 0 0.0 0.0 0.02 0.03 0.03 87 1008.8
20260503223604 46 9 0.0 0.0 0.02 0.03 0.03 87 1008.9
20260503223103 46 2 0.0 0.0 0.02 0.03 0.03 86 1008.8
20260503222603 46 1 0.0 0.0 0.02 0.03 0.03 86 1009.1
20260503222103 46 1 0.0 0.0 0.02 0.03 0.03 85 1009.0
20260503221603 46 1 0.0 0.0 0.01 0.02 0.02 85 1009.0
20260503221104 46 1 0.0 0.0 0.00 0.02 0.02 86 1009.1
20260503220604 46 10 0.0 0.0 0.00 0.02 0.02 85 1009.1
20260503220104 46 9 0.0 0.0 0.01 0.02 0.02 84 1009.1
20260503215604 46 9 0.0 0.0 0.01 0.02 0.02 84 1009.1
20260503215103 46 9 0.0 0.0 0.01 0.02 0.02 84 1009.2
20260503214103 46 10 0.0 0.0 0.01 0.02 0.02 83 1009.1
20260503213603 46 8 0.0 0.0 0.01 0.02 0.02 84 1009.3
20260503213104 46 12 0.0 0.0 0.01 0.02 0.02 83 1009.3
20260503212104 47 8 0.0 0.0 0.01 0.02 0.02 82 1009.4
20260503211604 47 9 0.0 0.0 0.01 0.02 0.02 81 1009.5
20260503211103 48 10 0.0 0.0 0.01 0.02 0.02 80 1009.6
20260503210603 48 7 0.0 0.0 0.01 0.02 0.02 77 1009.6
20260503210104 49 11 0.0 0.0 0.00 0.01 0.01 73 1009.5
20260503205603 50 0 0.0 0.0 0.01 0.01 0.01 69 1009.4
20260503205104 51 0 0.0 0.0 0.01 0.01 0.01 66 1009.3
20260503204604 51 0 0.0 0.0 0.01 0.01 0.01 64 1009.2
20260503204103 51 0 0.0 0.0 0.01 0.01 0.01 63 1009.1
20260503203603 51 12 0.0 0.0 0.01 0.01 0.01 65 1009.0
20260503203104 51 1 0.0 0.0 0.01 0.01 0.01 64 1008.9
20260503202603 51 0 0.0 0.0 0.01 0.01 0.01 63 1008.9
20260503202103 51 0 0.0 0.0 0.01 0.01 0.01 64 1009.0
20260503201603 51 12 0.0 0.0 0.01 0.01 0.01 65 1009.0
20260503200604 51 9 0.0 0.0 0.01 0.01 0.01 63 1009.1
20260503200104 52 0 0.0 0.0 0.01 0.01 0.01 61 1009.3
20260503195604 53 0 0.0 0.0 0.00 0.00 0.00 60 1009.5
20260503195104 54 0 0.0 0.0 0.00 0.00 0.00 55 1009.5
20260503194604 55 11 0.0 0.0 0.00 0.00 0.00 50 1009.3
20260503194104 55 10 0.0 0.0 0.00 0.00 0.00 46 1009.3
20260503193103 56 1 0.0 0.0 0.00 0.00 0.00 43 1009.2
20260503192604 56 2 0.0 0.0 0.00 0.00 0.00 43 1009.3
20260503191604 56 9 0.0 0.0 0.00 0.00 0.00 44 1009.2
20260503191104 55 1 0.0 0.0 0.00 0.00 0.00 43 1009.4
20260503190604 55 2 0.0 0.0 0.00 0.00 0.00 42 1009.5
20260503190104 56 1 0.0 0.0 0.00 0.00 0.00 43 1009.6
20260503185604 55 1 0.0 0.0 0.00 0.00 0.00 43 1009.6
20260503184604 55 0 0.0 0.0 0.00 0.00 0.00 43 1009.9
20260503184104 54 0 0.0 0.0 0.00 0.00 0.00 43 1010.0
20260503183604 54 0 0.0 0.0 0.00 0.00 0.00 43 1010.1
20260503183103 54 2 0.0 0.0 0.00 0.00 0.00 42 1010.2
20260503182603 54 9 0.0 0.0 0.00 0.00 0.00 43 1010.3
20260503182104 54 11 0.0 0.0 0.00 0.00 0.00 44 1010.5
20260503181603 54 9 0.0 0.0 0.00 0.00 0.00 43 1010.6
20260503181104 54 0 0.0 0.0 0.00 0.00 0.00 44 1010.7
20260503180604 54 1 0.0 0.0 0.00 0.00 0.00 43 1010.8
20260503180104 55 0 0.0 0.0 0.00 0.00 0.00 43 1010.9
20260503175604 55 10 0.0 0.0 0.00 0.00 0.00 39 1011.0
20260503175104 55 8 0.0 0.0 0.00 0.00 0.00 38 1010.9
20260503174604 55 89 0.0 0.0 0.00 0.00 0.00 38 1010.9
20260503174103 55 0 0.0 0.0 0.00 0.00 0.00 37 1010.8
20260503173604 55 0 0.0 0.0 0.00 0.00 0.00 37 1010.9
20260503173103 56 12 0.0 0.0 0.00 0.00 0.00 37 1011.0
20260503172603 56 10 0.0 0.0 0.00 0.00 0.00 36 1010.9
20260503172103 56 0 0.0 0.0 0.00 0.00 0.00 36 1011.0
20260503171604 57 12 0.0 0.0 0.00 0.00 0.00 35 1010.9
20260503170603 57 0 0.0 0.0 0.00 0.00 0.00 36 1011.0
20260503170104 57 0 0.0 0.0 0.00 0.00 0.00 36 1011.1
20260503160104 56 10 0.0 0.0 0.00 0.00 0.00 37 1012.2
20260503150603 54 10 0.0 0.0 0.00 0.00 0.00 38 1012.9
20260503150103 53 11 0.0 0.0 0.00 0.00 0.00 39 1012.9
20260503140104 49 9 0.0 0.0 0.00 0.00 0.00 43 1013.3
20260503131103 45 9 0.0 0.0 0.00 0.00 0.00 54 1013.8
20260503130104 44 10 0.0 0.0 0.00 0.00 0.00 55 1013.8
20260503120103 39 12 0.0 0.0 0.00 0.00 0.00 61 1013.8
20260503110604 27 1 0.0 0.0 0.00 0.00 0.00 87 1014.0
20260503110104 26 2 0.0 0.0 0.00 0.00 0.00 87 1014.0
20260503100104 25 0 0.0 0.0 0.00 0.00 0.00 85 1014.0
20260503090104 26 9 0.0 0.0 0.00 0.00 0.00 85 1014.3
20260503081603 26 0 0.0 0.0 0.00 0.00 0.00 82 1014.6
20260503081104 26 0 0.0 0.0 0.00 0.00 0.00 82 1014.6
20260503080603 26 0 0.0 0.0 0.00 0.00 0.00 82 1014.6
20260503080104 26 0 0.0 0.0 0.00 0.00 0.00 82 1014.6
20260503072603 27 0 0.0 0.0 0.00 0.00 0.00 82 1014.7
20260503072103 27 0 0.0 0.0 0.00 0.00 0.00 82 1014.6
20260503071103 27 11 0.0 0.0 0.00 0.00 0.00 81 1014.6
20260503070603 27 10 0.0 0.0 0.00 0.00 0.00 81 1014.7
20260503070104 27 11 0.0 0.0 0.00 0.00 0.00 81 1014.7
20260503060104 28 1 0.0 0.0 0.00 0.00 0.00 78 1015.0
20260503055104 28 2 0.0 0.0 0.00 0.00 0.00 78 1015.1
20260503054604 28 10 0.0 0.0 0.00 0.00 0.00 77 1015.1
20260503054103 28 11 0.0 0.0 0.00 0.00 0.00 77 1015.2
20260503053604 28 9 0.0 0.0 0.00 0.00 0.00 77 1015.3
20260503052603 28 2 0.0 0.0 0.00 0.00 0.00 75 1015.3
20260503052104 28 1 0.0 0.0 0.00 0.00 0.00 75 1015.4
20260503051104 28 9 0.0 0.0 0.00 0.00 0.00 73 1015.4
20260503050104 29 10 0.0 0.0 0.00 0.00 0.00 74 1015.5
20260503045604 29 9 0.0 0.0 0.00 0.00 0.00 74 1015.5
20260503045104 29 9 0.0 0.0 0.00 0.00 0.00 73 1015.5
20260503044604 29 9 0.0 0.0 0.00 0.00 0.00 71 1015.5
20260503044104 29 0 0.0 0.0 0.00 0.00 0.00 71 1015.6
20260503043604 29 0 0.0 0.0 0.00 0.00 0.00 72 1015.7
20260503043104 29 0 0.0 0.0 0.00 0.00 0.00 72 1015.7
20260503042603 29 0 0.0 0.0 0.00 0.00 0.00 72 1015.7
20260503041103 29 11 0.0 0.0 0.00 0.00 0.00 72 1015.7
20260503040604 30 10 0.0 0.0 0.00 0.00 0.00 71 1015.7
20260503040103 30 10 0.0 0.0 0.00 0.00 0.00 70 1015.8
20260503035103 30 1 0.0 0.0 0.00 0.00 0.00 68 1015.8
20260503034604 30 1 0.0 0.0 0.00 0.00 0.00 68 1015.8
20260503034103 30 1 0.0 0.0 0.00 0.00 0.00 67 1015.9
20260503033604 30 1 0.0 0.0 0.00 0.00 0.00 67 1015.9
20260503033103 31 0 0.0 0.0 0.00 0.00 0.00 68 1015.9
20260503032604 31 0 0.0 0.0 0.00 0.00 0.00 67 1015.9
20260503032103 31 0 0.0 0.0 0.00 0.00 0.00 65 1015.9
20260503031604 31 10 0.0 0.0 0.00 0.00 0.00 65 1015.9
20260503031103 31 11 0.0 0.0 0.00 0.00 0.00 64 1016.0
20260503030603 32 11 0.0 0.0 0.00 0.00 0.00 64 1016.0
20260503025604 32 2 0.0 0.0 0.00 0.00 0.00 62 1016.0
20260503025103 32 1 0.0 0.0 0.00 0.00 0.00 62 1016.0
20260503024604 32 0 0.0 0.0 0.00 0.00 0.00 61 1016.1
20260503024104 32 0 0.0 0.0 0.00 0.00 0.00 61 1016.1
20260503023604 33 12 0.0 0.0 0.00 0.00 0.00 61 1016.1
20260503023103 33 9 0.0 0.0 0.00 0.00 0.00 60 1016.1
20260503022604 33 0 0.0 0.0 0.00 0.00 0.00 60 1016.0
20260503022104 33 0 0.0 0.0 0.00 0.00 0.00 60 1016.0
20260503021604 33 1 0.0 0.0 0.00 0.00 0.00 60 1016.1
20260503021103 33 0 0.0 0.0 0.00 0.00 0.00 59 1016.1
20260503020604 34 0 0.0 0.0 0.00 0.00 0.00 58 1016.1
20260503015604 34 1 0.0 0.0 0.00 0.00 0.00 58 1016.1
20260503015104 34 0 0.0 0.0 0.00 0.00 0.00 58 1016.1
20260503014603 35 0 0.0 0.0 0.00 0.00 0.00 57 1016.0
20260503014104 35 0 0.0 0.0 0.00 0.00 0.00 57 1016.0
20260503013603 35 0 0.0 0.0 0.00 0.00 0.00 57 1016.0
20260503013103 36 1 0.0 0.0 0.00 0.00 0.00 57 1016.0
20260503012603 36 2 0.0 0.0 0.00 0.00 0.00 56 1015.9
20260503012103 36 1 0.0 0.0 0.00 0.00 0.00 56 1015.9
20260503011603 37 1 0.0 0.0 0.00 0.00 0.00 55 1015.8
20260503011104 37 10 0.0 0.0 0.00 0.00 0.00 55 1015.8
20260503010104 37 1 0.0 0.0 0.00 0.00 0.00 53 1015.8
20260503005603 38 89 0.0 0.0 0.00 0.00 0.00 52 1015.7
20260503005104 38 10 0.0 0.0 0.00 0.00 0.00 52 1015.7
20260503004604 38 2 0.0 0.0 0.00 0.00 0.00 51 1015.7
20260503004103 39 0 0.0 0.0 0.00 0.00 0.00 50 1015.7
20260503003603 39 0 0.0 0.0 0.00 0.00 0.00 49 1015.6
20260503003104 39 0 0.0 0.0 0.00 0.00 0.00 49 1015.6
20260503002604 39 0 0.0 0.0 0.00 0.00 0.00 49 1015.6
20260503001603 40 0 0.0 0.0 0.00 0.00 0.00 47 1015.6
20260503001103 40 12 0.0 0.0 0.00 0.00 0.00 46 1015.6
20260503000603 40 2 0.0 0.0 0.00 0.00 0.00 46 1015.5
20260502235603 41 0 0.0 0.0 0.00 0.00 0.00 47 1015.5
20260502235104 41 0 0.0 0.0 0.00 0.00 0.00 48 1015.6
20260502234604 41 0 0.0 0.0 0.00 0.00 0.00 48 1015.5
20260502234104 41 12 0.0 0.0 0.00 0.00 0.00 47 1015.6